Time;durP1;ratioP1;P1;durP2;ratioP2;P2;SDS_P1;SDS_P2;PMS_P1;PMS_P2;Temp;Humidity;BMP_temperature;BMP_pressure;BME280_temperature;BME280_humidity;BME280_pressure;Samples;Min_cycle;Max_cycle;Signal;HPM_P1;HPM_P2
2022/08/27 00:01:24;;;;;;;29.50;24.07;;;;;;;19.08;100.00;97890.44;5102906;28;20340;-68
2022/08/27 00:03:51;;;;;;;31.87;24.47;;;;;;;19.11;100.00;97884.78;5099967;28;20335;-69
2022/08/27 00:06:19;;;;;;;34.33;27.13;;;;;;;19.12;100.00;97883.78;5099924;28;20222;-68
2022/08/27 00:08:48;;;;;;;34.30;26.30;;;;;;;19.15;100.00;97886.09;5099863;28;20231;-68
2022/08/27 00:11:18;;;;;;;34.70;25.27;;;;;;;19.16;100.00;97887.81;5102684;28;20261;-68
2022/08/27 00:13:45;;;;;;;32.73;25.40;;;;;;;19.21;100.00;97879.31;5099935;28;20264;-69
2022/08/27 00:16:14;;;;;;;29.23;23.57;;;;;;;19.21;100.00;97880.13;5099865;28;20268;-69
2022/08/27 00:18:41;;;;;;;31.57;25.07;;;;;;;19.25;100.00;97891.34;5099735;28;20629;-69
2022/08/27 00:21:08;;;;;;;26.40;21.87;;;;;;;19.27;100.00;97895.53;5099705;28;20221;-69
2022/08/27 00:23:36;;;;;;;27.37;22.97;;;;;;;19.29;100.00;97893.56;5099683;28;20557;-69
2022/08/27 00:26:03;;;;;;;26.77;22.17;;;;;;;19.30;100.00;97897.91;5098047;28;20704;-69
2022/08/27 00:28:32;;;;;;;30.47;23.00;;;;;;;19.30;100.00;97900.59;5099682;28;20670;-68
2022/08/27 00:30:59;;;;;;;29.57;23.63;;;;;;;19.29;100.00;97904.28;5096964;28;20233;-68
2022/08/27 00:33:27;;;;;;;28.70;22.33;;;;;;;19.28;100.00;97902.59;5099609;28;20228;-68
2022/08/27 00:35:54;;;;;;;26.00;21.27;;;;;;;19.28;100.00;97907.97;5099601;28;20223;-68
2022/08/27 00:38:23;;;;;;;25.57;21.20;;;;;;;19.30;100.00;97905.09;5099566;28;20337;-68
2022/08/27 00:40:50;;;;;;;27.97;21.73;;;;;;;19.26;100.00;97901.91;5096960;28;20233;-68
2022/08/27 00:43:22;;;;;;;29.83;21.70;;;;;;;19.23;100.00;97901.41;5099504;28;20281;-68
2022/08/27 00:45:53;;;;;;;27.93;22.33;;;;;;;19.20;100.00;97899.88;5099539;28;20245;-68
2022/08/27 00:48:23;;;;;;;24.93;20.93;;;;;;;19.19;100.00;97892.00;5100529;28;20309;-68
2022/08/27 00:50:53;;;;;;;26.47;21.37;;;;;;;19.14;100.00;97897.84;5098936;28;20226;-68
2022/08/27 00:53:22;;;;;;;26.47;22.00;;;;;;;19.13;100.00;97898.84;5099548;28;20246;-68
2022/08/27 00:55:52;;;;;;;29.17;22.63;;;;;;;19.12;100.00;97893.63;5099293;28;20302;-69
2022/08/27 00:58:25;;;;;;;30.63;23.47;;;;;;;19.11;100.00;97900.84;5101698;28;20226;-68
2022/08/27 01:00:54;;;;;;;25.63;21.90;;;;;;;19.11;100.00;97890.13;5087958;28;20226;-69
2022/08/27 01:03:21;;;;;;;29.93;22.97;;;;;;;19.12;100.00;97902.53;5099287;28;20609;-69
2022/08/27 01:05:50;;;;;;;28.50;22.40;;;;;;;19.14;100.00;97899.69;5099372;28;20262;-69
2022/08/27 01:08:20;;;;;;;30.30;23.53;;;;;;;19.16;100.00;97893.16;5102035;28;20271;-69
2022/08/27 01:10:48;;;;;;;28.27;22.57;;;;;;;19.19;100.00;97898.19;5099370;28;20571;-68
2022/08/27 01:13:18;;;;;;;32.27;24.93;;;;;;;19.22;100.00;97895.22;5099323;28;20250;-69
2022/08/27 01:15:46;;;;;;;28.60;23.07;;;;;;;19.23;100.00;97894.22;5099333;28;20272;-68
2022/08/27 01:18:15;;;;;;;32.80;25.67;;;;;;;19.27;100.00;97895.53;5103526;28;20227;-68
2022/08/27 01:20:48;;;;;;;33.93;25.60;;;;;;;19.31;100.00;97886.16;5102997;28;20689;-68
2022/08/27 01:23:22;;;;;;;32.20;25.20;;;;;;;19.34;100.00;97883.19;5102931;28;20246;-69
2022/08/27 01:25:51;;;;;;;28.07;23.07;;;;;;;19.34;100.00;97885.84;5104981;28;20226;-69
2022/08/27 01:28:18;;;;;;;32.97;26.43;;;;;;;19.30;100.00;97886.34;5103191;28;20227;-68
2022/08/27 01:30:45;;;;;;;37.30;28.87;;;;;;;19.23;100.00;97877.28;5102892;28;20632;-68
2022/08/27 01:33:14;;;;;;;31.83;26.40;;;;;;;19.12;100.00;97881.09;5100173;28;20254;-68
2022/08/27 01:35:42;;;;;;;33.77;27.90;;;;;;;19.07;100.00;97888.78;5100945;28;20223;-69
2022/08/27 01:38:09;;;;;;;35.33;28.30;;;;;;;19.04;100.00;97886.44;5103014;28;20271;-68
2022/08/27 01:40:36;;;;;;;36.17;27.93;;;;;;;19.02;100.00;97880.41;5102821;28;20231;-68
2022/08/27 01:43:05;;;;;;;35.70;28.30;;;;;;;19.04;100.00;97883.78;5100823;28;20445;-68
2022/08/27 01:45:35;;;;;;;34.93;29.80;;;;;;;19.09;100.00;97888.63;5100955;28;20330;-68
2022/08/27 01:48:02;;;;;;;42.30;30.57;;;;;;;19.11;100.00;97882.09;5090721;28;20303;-69
2022/08/27 01:50:31;;;;;;;35.77;28.77;;;;;;;19.12;100.00;97881.09;5102452;28;20226;-68
2022/08/27 01:53:03;;;;;;;32.17;25.23;;;;;;;19.15;100.00;97874.56;5102328;28;20250;-69
2022/08/27 01:55:29;;;;;;;33.70;26.30;;;;;;;19.19;100.00;97875.94;5105194;28;20494;-68
2022/08/27 01:57:56;;;;;;;31.17;26.43;;;;;;;19.20;100.00;97882.97;5102387;28;20272;-68
2022/08/27 02:00:27;;;;;;;32.43;25.87;;;;;;;19.22;100.00;97880.97;5102442;28;20262;-68
2022/08/27 02:02:54;;;;;;;31.03;26.27;;;;;;;19.22;100.00;97880.97;5102339;28;20230;-68
2022/08/27 02:05:21;;;;;;;35.17;28.00;;;;;;;19.22;100.00;97876.47;5105010;28;20230;-68
2022/08/27 02:07:48;;;;;;;32.43;25.67;;;;;;;19.17;100.00;97875.22;5102183;28;20235;-68
2022/08/27 02:10:20;;;;;;;33.20;26.20;;;;;;;19.15;100.00;97879.94;5100636;28;20254;-68
2022/08/27 02:12:46;;;;;;;29.73;24.13;;;;;;;19.14;100.00;97876.41;5102174;28;20620;-68
2022/08/27 02:15:15;;;;;;;30.00;24.70;;;;;;;19.14;100.00;97863.00;5099570;28;20222;-68
2022/08/27 02:17:43;;;;;;;28.80;22.87;;;;;;;19.19;100.00;97876.75;5102160;28;20223;-68
2022/08/27 02:20:11;;;;;;;28.73;23.23;;;;;;;19.21;100.00;97874.75;5102073;28;20561;-69
2022/08/27 02:22:38;;;;;;;25.73;21.37;;;;;;;19.23;100.00;97878.13;5101980;28;20600;-68
2022/08/27 02:25:07;;;;;;;27.33;22.57;;;;;;;19.26;100.00;97883.16;5104144;28;20313;-69
2022/08/27 02:27:33;;;;;;;29.43;23.23;;;;;;;19.28;100.00;97885.66;5101303;28;20279;-68
2022/08/27 02:30:00;;;;;;;32.80;25.67;;;;;;;19.28;100.00;97881.16;5101295;28;20644;-68
2022/08/27 02:32:27;;;;;;;29.00;24.17;;;;;;;19.29;100.00;97882.84;5101843;28;20287;-69
2022/08/27 02:34:56;;;;;;;31.00;24.50;;;;;;;19.29;100.00;97882.84;5102416;28;20228;-68
2022/08/27 02:37:23;;;;;;;30.23;23.93;;;;;;;19.31;100.00;97886.16;5101886;28;20230;-68
2022/08/27 02:39:49;;;;;;;31.77;24.20;;;;;;;19.33;100.00;97889.50;5101748;28;20504;-68
2022/08/27 02:42:16;;;;;;;32.67;25.27;;;;;;;19.34;100.00;97887.69;5101585;28;20575;-68
2022/08/27 02:44:43;;;;;;;28.57;23.20;;;;;;;19.35;100.00;97892.03;5098770;28;20349;-68
2022/08/27 02:47:09;;;;;;;29.73;23.93;;;;;;;19.33;100.00;97886.84;5101478;28;20301;-68
2022/08/27 02:49:36;;;;;;;32.67;24.27;;;;;;;19.28;100.00;97889.19;5101420;28;20228;-68
2022/08/27 02:52:04;;;;;;;32.00;25.13;;;;;;;19.28;100.00;97886.53;5101296;28;20252;-68
2022/08/27 02:54:31;;;;;;;31.10;24.10;;;;;;;19.27;100.00;97884.00;5104071;28;20271;-68
2022/08/27 02:56:58;;;;;;;31.70;23.80;;;;;;;19.27;100.00;97890.19;5101223;28;20223;-68
2022/08/27 02:59:24;;;;;;;30.03;23.60;;;;;;;19.24;100.00;97893.19;5110204;28;20264;-69
2022/08/27 03:01:51;;;;;;;29.67;23.17;;;;;;;19.20;100.00;97889.16;5102405;28;20265;-69
2022/08/27 03:04:19;;;;;;;28.70;23.53;;;;;;;19.18;100.00;97890.31;5103832;28;20378;-68
2022/08/27 03:06:46;;;;;;;30.20;23.70;;;;;;;19.11;100.00;97895.50;5101045;28;20226;-68
2022/08/27 03:09:15;;;;;;;30.87;23.53;;;;;;;19.07;100.00;97883.44;5100968;28;20222;-68
2022/08/27 03:11:42;;;;;;;29.80;23.30;;;;;;;19.03;100.00;97884.75;5100963;28;20309;-68
2022/08/27 03:14:08;;;;;;;31.60;23.37;;;;;;;19.00;100.00;97882.41;5103638;28;20218;-69
2022/08/27 03:16:36;;;;;;;30.07;23.27;;;;;;;18.96;100.00;97880.22;5101001;28;20258;-68
2022/08/27 03:19:02;;;;;;;28.77;22.43;;;;;;;18.90;100.00;97881.72;5100933;28;20272;-68
2022/08/27 03:21:29;;;;;;;28.70;22.63;;;;;;;18.82;100.00;97879.00;5100793;28;20302;-68
2022/08/27 03:23:56;;;;;;;29.10;22.63;;;;;;;18.77;100.00;97889.38;5103437;28;20253;-68
2022/08/27 03:26:24;;;;;;;25.67;20.57;;;;;;;18.75;100.00;97883.34;5100149;28;20222;-68
2022/08/27 03:28:51;;;;;;;27.80;21.30;;;;;;;18.76;100.00;97893.06;5099732;28;20227;-68
2022/08/27 03:31:25;;;;;;;27.43;21.33;;;;;;;18.73;100.00;97884.50;5100574;28;20632;-68
2022/08/27 03:33:53;;;;;;;27.07;20.87;;;;;;;18.69;100.00;97889.34;5097801;28;20234;-68
2022/08/27 03:36:19;;;;;;;24.13;19.80;;;;;;;18.69;100.00;97884.00;5100539;28;20226;-68
2022/08/27 03:38:46;;;;;;;28.77;21.17;;;;;;;18.67;100.00;97882.47;5100350;28;20224;-68
2022/08/27 03:41:13;;;;;;;24.70;19.80;;;;;;;18.64;100.00;97872.94;5100159;28;20227;-68
2022/08/27 03:43:41;;;;;;;24.50;19.57;;;;;;;18.61;100.00;97888.47;5103054;28;20226;-68
2022/08/27 03:46:08;;;;;;;25.47;20.13;;;;;;;18.64;100.00;97886.31;5100435;28;20219;-68
2022/08/27 03:48:35;;;;;;;25.80;19.67;;;;;;;18.62;100.00;97882.97;5100365;28;20231;-68
2022/08/27 03:51:05;;;;;;;25.67;19.67;;;;;;;18.62;100.00;97890.16;5100264;28;20227;-67
2022/08/27 03:53:32;;;;;;;27.13;21.00;;;;;;;18.58;100.00;97881.59;5095917;28;20242;-68
2022/08/27 03:55:59;;;;;;;25.60;20.20;;;;;;;18.55;100.00;97876.59;5100216;28;20598;-67
2022/08/27 03:58:26;;;;;;;28.87;22.67;;;;;;;18.60;100.00;97878.78;5100171;28;20236;-67
2022/08/27 04:00:54;;;;;;;27.90;22.33;;;;;;;18.54;100.00;97874.91;5100043;28;20226;-68
2022/08/27 04:03:21;;;;;;;29.10;21.87;;;;;;;18.59;100.00;97882.47;5102834;28;20501;-68
2022/08/27 04:05:52;;;;;;;30.17;21.60;;;;;;;18.61;100.00;97875.09;5099979;28;20239;-68
2022/08/27 04:08:20;;;;;;;29.97;22.00;;;;;;;18.62;100.00;97869.59;5100020;28;20229;-68
2022/08/27 04:10:47;;;;;;;39.90;27.50;;;;;;;18.68;100.00;97871.63;5099874;28;20305;-67
2022/08/27 04:13:14;;;;;;;33.20;24.07;;;;;;;18.66;100.00;97873.59;5099933;28;20282;-67
2022/08/27 04:15:44;;;;;;;34.97;25.13;;;;;;;18.72;100.00;97866.78;5099966;28;20223;-68
2022/08/27 04:18:12;;;;;;;31.17;23.60;;;;;;;18.74;100.00;97867.44;5099881;28;20238;-68
2022/08/27 04:20:39;;;;;;;36.67;26.73;;;;;;;18.80;100.00;97870.31;5098272;28;20686;-68
2022/08/27 04:23:05;;;;;;;35.80;26.47;;;;;;;18.83;100.00;97879.88;5102048;28;20266;-68
2022/08/27 04:25:32;;;;;;;33.93;25.60;;;;;;;18.81;100.00;97876.50;5099683;28;20250;-68
2022/08/27 04:27:59;;;;;;;34.23;25.30;;;;;;;18.83;100.00;97886.03;5099667;28;20223;-70
2022/08/27 04:30:26;;;;;;;38.63;28.10;;;;;;;18.85;100.00;97878.72;5099648;28;20226;-70
2022/08/27 04:32:52;;;;;;;37.03;26.87;;;;;;;18.90;100.00;97880.88;5099645;28;20268;-69
2022/08/27 04:35:21;;;;;;;41.33;28.90;;;;;;;18.89;100.00;97884.56;5099703;28;20498;-69
2022/08/27 04:37:47;;;;;;;38.60;28.70;;;;;;;18.91;100.00;97880.69;5099606;28;20624;-69
2022/08/27 04:40:14;;;;;;;45.17;31.47;;;;;;;18.94;100.00;97882.22;5099609;28;20230;-67
2022/08/27 04:42:41;;;;;;;41.50;30.20;;;;;;;18.90;100.00;97880.88;5102302;28;20235;-69
2022/08/27 04:45:08;;;;;;;40.33;30.57;;;;;;;18.86;100.00;97884.88;5097699;28;20239;-66
2022/08/27 04:47:36;;;;;;;44.03;32.10;;;;;;;18.88;100.00;97882.88;5099578;28;20226;-67
2022/08/27 04:50:02;;;;;;;38.13;29.50;;;;;;;18.81;100.00;97881.84;5099478;28;20272;-67
2022/08/27 04:52:30;;;;;;;48.43;34.07;;;;;;;18.81;100.00;97888.06;5104762;28;20253;-68
2022/08/27 04:54:57;;;;;;;44.47;31.73;;;;;;;18.83;100.00;97879.88;5103586;28;20276;-67
2022/08/27 04:57:24;;;;;;;44.10;31.30;;;;;;;18.87;100.00;97887.41;5103548;28;20262;-67
2022/08/27 04:59:51;;;;;;;41.50;30.40;;;;;;;18.86;100.00;97883.06;5103469;28;20694;-69
2022/08/27 05:02:17;;;;;;;42.40;31.00;;;;;;;18.89;100.00;97885.38;5106248;28;20226;-67
2022/08/27 05:04:44;;;;;;;39.67;30.77;;;;;;;18.88;100.00;97888.22;5103288;28;20243;-67
2022/08/27 05:07:11;;;;;;;41.87;31.57;;;;;;;18.85;100.00;97884.06;5103387;28;20227;-67
2022/08/27 05:09:40;;;;;;;40.57;30.50;;;;;;;18.91;100.00;97886.06;5103242;28;20227;-67
2022/08/27 05:12:07;;;;;;;41.33;28.63;;;;;;;18.93;100.00;97885.91;5104291;28;20231;-67
2022/08/27 05:14:34;;;;;;;39.23;28.23;;;;;;;18.95;100.00;97890.09;5103334;28;20225;-67
2022/08/27 05:17:01;;;;;;;37.27;28.80;;;;;;;19.03;100.00;97892.78;5103139;28;20227;-67
2022/08/27 05:19:28;;;;;;;37.47;28.23;;;;;;;19.04;100.00;97889.13;5103054;28;20231;-67
2022/08/27 05:21:54;;;;;;;35.27;28.10;;;;;;;19.11;100.00;97887.47;5105861;28;20572;-69
2022/08/27 05:24:21;;;;;;;36.93;29.33;;;;;;;19.13;100.00;97881.94;5090888;28;20242;-69
2022/08/27 05:26:50;;;;;;;38.33;27.83;;;;;;;19.16;100.00;97885.13;5102012;28;20235;-67
2022/08/27 05:29:17;;;;;;;42.50;29.37;;;;;;;19.20;100.00;97883.81;5103010;28;20276;-69
2022/08/27 05:31:47;;;;;;;43.33;30.47;;;;;;;19.20;100.00;97885.63;5105775;28;20300;-69
2022/08/27 05:34:14;;;;;;;38.70;30.23;;;;;;;19.20;100.00;97881.13;5091445;28;20222;-69
2022/08/27 05:36:41;;;;;;;36.83;29.13;;;;;;;19.18;100.00;97882.25;5101540;28;20222;-69
2022/08/27 05:39:08;;;;;;;37.80;28.50;;;;;;;19.18;100.00;97890.31;5102651;28;20277;-69
2022/08/27 05:41:36;;;;;;;37.17;28.97;;;;;;;19.25;100.00;97888.66;5105591;28;20221;-67
2022/08/27 05:44:08;;;;;;;44.53;31.33;;;;;;;19.26;100.00;97879.66;5102715;28;20233;-67
2022/08/27 05:46:36;;;;;;;37.40;28.47;;;;;;;19.28;100.00;97885.66;5102773;28;20227;-67
2022/08/27 05:49:02;;;;;;;38.53;30.00;;;;;;;19.30;100.00;97887.19;5102670;28;20312;-68
2022/08/27 05:51:32;;;;;;;41.50;31.00;;;;;;;19.36;100.00;97886.53;5105206;28;20277;-67
2022/08/27 05:54:02;;;;;;;36.97;28.43;;;;;;;19.37;100.00;97888.19;5102501;28;20226;-67
2022/08/27 05:56:32;;;;;;;40.73;29.77;;;;;;;19.41;100.00;97888.69;5102389;28;20689;-67
2022/08/27 06:01:47;;;;;;;35.90;28.13;;;;;;;19.54;100.00;97903.28;5090486;28;20214;-67
2022/08/27 06:04:14;;;;;;;43.37;31.20;;;;;;;19.60;100.00;97902.63;5100397;28;20251;-67
2022/08/27 06:06:43;;;;;;;41.13;32.17;;;;;;;19.63;100.00;97896.91;5102318;28;20230;-68
2022/08/27 06:09:12;;;;;;;40.03;31.67;;;;;;;19.63;100.00;97896.91;5105110;28;20580;-67
2022/08/27 06:11:39;;;;;;;39.13;30.80;;;;;;;19.67;100.00;97898.25;5102284;28;20313;-67
2022/08/27 06:14:07;;;;;;;42.80;31.10;;;;;;;19.65;100.00;97905.63;5102195;28;20223;-67
2022/08/27 06:16:35;;;;;;;37.73;29.03;;;;;;;19.69;100.00;97901.59;5102059;28;20226;-67
2022/08/27 06:19:03;;;;;;;37.70;31.30;;;;;;;19.75;100.00;97895.56;5104751;28;20226;-67
2022/08/27 06:21:30;;;;;;;41.50;31.70;;;;;;;19.87;100.00;97899.56;5101947;28;20230;-67
2022/08/27 06:23:56;;;;;;;37.30;29.50;;;;;;;19.89;100.00;97902.94;5101869;28;20226;-67
2022/08/27 06:26:26;;;;;;;36.63;28.13;;;;;;;19.95;100.00;97904.94;5101593;28;20243;-67
2022/08/27 06:28:53;;;;;;;35.47;28.43;;;;;;;20.00;100.00;97905.25;5102718;28;20260;-67
2022/08/27 06:31:22;;;;;;;38.10;29.93;;;;;;;20.16;100.00;97910.63;5101806;28;20230;-67
2022/08/27 06:33:50;;;;;;;33.63;26.13;;;;;;;20.22;100.00;97907.28;5101755;28;20222;-67
2022/08/27 06:36:20;;;;;;;34.97;27.23;;;;;;;20.35;100.00;97904.88;5101663;28;20218;-66
2022/08/27 06:38:48;;;;;;;32.73;27.23;;;;;;;20.50;100.00;97913.06;5099216;28;20292;-68
2022/08/27 06:41:17;;;;;;;32.00;26.73;;;;;;;20.55;100.00;97911.53;5101516;28;20226;-67
2022/08/27 06:43:45;;;;;;;32.70;26.23;;;;;;;20.56;100.00;97918.59;5101487;28;20227;-68
2022/08/27 06:46:14;;;;;;;32.07;26.70;;;;;;;20.59;100.00;97920.06;5101741;28;20239;-68
2022/08/27 06:48:43;;;;;;;34.37;27.30;;;;;;;20.53;100.00;97923.44;5103297;28;20222;-68
2022/08/27 06:51:12;;;;;;;33.00;26.37;;;;;;;20.47;100.00;97921.47;5101362;28;20225;-68
2022/08/27 06:53:41;;;;;;;35.40;27.00;;;;;;;20.52;100.00;97921.78;5101239;28;20227;-67
2022/08/27 06:56:07;;;;;;;34.13;27.10;;;;;;;20.44;100.00;97919.97;5100653;28;20279;-69
2022/08/27 06:58:34;;;;;;;32.90;26.40;;;;;;;20.43;100.00;97922.81;5102457;28;20275;-68
2022/08/27 07:01:02;;;;;;;31.80;24.67;;;;;;;20.43;100.00;97918.28;5101304;28;20301;-68
2022/08/27 07:03:28;;;;;;;31.73;24.73;;;;;;;20.47;100.00;97916.13;5101217;28;20581;-69
2022/08/27 07:06:04;;;;;;;30.83;25.63;;;;;;;20.37;100.00;97923.50;5101795;28;20590;-67
2022/08/27 07:08:31;;;;;;;28.67;23.70;;;;;;;20.33;100.00;97917.66;5101522;28;20310;-67
2022/08/27 07:10:59;;;;;;;29.80;24.67;;;;;;;20.32;100.00;97925.88;5101060;28;20589;-68
2022/08/27 07:13:26;;;;;;;28.57;24.27;;;;;;;20.25;100.00;97917.66;5101031;28;20230;-69
2022/08/27 07:15:53;;;;;;;30.60;26.30;;;;;;;20.30;100.00;97914.47;5102288;28;20226;-68
2022/08/27 07:18:20;;;;;;;31.37;26.60;;;;;;;20.27;100.00;97926.38;5101613;28;20262;-69
2022/08/27 07:20:46;;;;;;;31.17;25.83;;;;;;;20.27;100.00;97918.34;5099337;28;20256;-68
2022/08/27 07:23:13;;;;;;;32.87;26.60;;;;;;;20.20;100.00;97925.41;5100564;28;20295;-68
2022/08/27 07:25:42;;;;;;;35.70;27.97;;;;;;;20.19;100.00;97931.75;5097923;28;20246;-68
2022/08/27 07:28:10;;;;;;;33.60;26.90;;;;;;;20.15;100.00;97937.63;5098877;28;20275;-69
2022/08/27 07:30:37;;;;;;;30.97;25.47;;;;;;;20.15;100.00;97941.16;5099558;28;20266;-67
2022/08/27 07:33:04;;;;;;;30.33;24.90;;;;;;;20.19;100.00;97934.44;5099716;28;20248;-67
2022/08/27 07:35:31;;;;;;;30.27;25.10;;;;;;;20.26;100.00;97931.91;5099162;28;20222;-67
2022/08/27 07:37:58;;;;;;;30.87;25.37;;;;;;;20.29;100.00;97937.78;5098888;28;20225;-67
2022/08/27 07:40:25;;;;;;;28.43;22.57;;;;;;;20.37;100.00;97935.06;5097904;28;20226;-67
2022/08/27 07:45:44;;;;;;;29.57;24.93;;;;;;;20.52;100.00;97944.09;5097735;28;20307;-66
2022/08/27 07:48:11;;;;;;;31.73;25.00;;;;;;;20.54;100.00;97943.94;5096041;28;20272;-66
2022/08/27 07:50:38;;;;;;;29.53;24.57;;;;;;;20.61;100.00;97947.59;5105587;28;20571;-66
2022/08/27 07:53:06;;;;;;;27.87;23.80;;;;;;;20.61;100.00;97952.97;5098886;28;20332;-66
2022/08/27 07:55:35;;;;;;;29.47;24.27;;;;;;;20.56;100.00;97950.81;5097206;28;20226;-67
2022/08/27 07:58:02;;;;;;;29.43;24.63;;;;;;;20.55;100.00;97953.66;5096546;28;20251;-67
2022/08/27 08:00:28;;;;;;;27.50;22.77;;;;;;;20.45;100.00;97959.22;5097785;28;20284;-68
2022/08/27 08:02:56;;;;;;;35.80;25.77;;;;;;;20.43;100.00;97958.53;5099159;28;20714;-67
2022/08/27 08:05:23;;;;;;;30.50;25.20;;;;;;;20.35;100.00;97963.94;5098117;28;20677;-68
2022/08/27 08:07:50;;;;;;;32.43;25.93;;;;;;;20.24;100.00;97961.59;5098218;28;20298;-67
2022/08/27 08:10:21;;;;;;;32.97;25.43;;;;;;;20.11;100.00;97963.97;5098294;28;20229;-67
2022/08/27 08:12:48;;;;;;;28.97;23.83;;;;;;;20.02;100.00;97970.34;5099137;28;20221;-68
2022/08/27 08:15:17;;;;;;;34.27;27.17;;;;;;;19.89;100.00;97971.84;5096525;28;20310;-66
2022/08/27 08:17:44;;;;;;;30.17;26.33;;;;;;;19.72;100.00;97964.78;5098106;28;20313;-68
2022/08/27 08:20:14;;;;;;;35.20;27.43;;;;;;;19.55;100.00;97963.94;5098128;28;20615;-68
2022/08/27 08:22:42;;;;;;;35.17;27.80;;;;;;;19.53;100.00;97960.59;5098027;28;20223;-68
2022/08/27 08:25:09;;;;;;;36.33;28.53;;;;;;;19.47;100.00;97958.56;5097926;28;20347;-66
2022/08/27 08:27:36;;;;;;;40.07;30.70;;;;;;;19.37;100.00;97960.56;5097294;28;20280;-64
2022/08/27 08:30:03;;;;;;;38.23;30.17;;;;;;;19.33;100.00;97958.38;5098038;28;20677;-66
2022/08/27 08:32:29;;;;;;;39.67;31.03;;;;;;;19.37;100.00;97955.19;5098884;28;20222;-64
2022/08/27 08:34:58;;;;;;;41.97;32.83;;;;;;;19.26;100.00;97968.91;5098066;28;20303;-64
2022/08/27 08:37:27;;;;;;;42.33;31.33;;;;;;;19.19;100.00;97967.84;5097977;28;20283;-65
2022/08/27 08:39:54;;;;;;;46.13;33.57;;;;;;;19.12;100.00;97960.63;5096240;28;20223;-64
2022/08/27 08:42:30;;;;;;;39.70;30.00;;;;;;;19.09;100.00;97956.41;5097109;28;20226;-64
2022/08/27 08:44:58;;;;;;;41.57;29.70;;;;;;;19.06;100.00;97962.13;5097934;28;20226;-65
2022/08/27 08:47:30;;;;;;;39.40;29.00;;;;;;;19.01;100.00;97969.78;5097776;28;20218;-65
2022/08/27 08:50:03;;;;;;;28.00;22.20;;;;;;;19.05;100.00;97962.28;5098720;28;20239;-64
2022/08/27 08:52:41;;;;;;;23.77;19.50;;;;;;;19.00;100.00;97962.78;5097709;28;20642;-64
2022/08/27 08:55:16;;;;;;;20.17;17.40;;;;;;;18.95;100.00;97969.63;5097934;28;20255;-65
2022/08/27 08:57:48;;;;;;;21.23;16.83;;;;;;;18.96;100.00;97966.75;5098559;28;20226;-64
2022/08/27 09:00:16;;;;;;;20.00;17.43;;;;;;;19.00;100.00;97973.47;5083091;28;20218;-65
2022/08/27 09:02:49;;;;;;;20.60;17.77;;;;;;;19.04;100.00;97966.81;5097715;28;20230;-65
2022/08/27 09:05:16;;;;;;;22.97;18.03;;;;;;;19.07;100.00;97977.19;5096041;28;20314;-65
2022/08/27 09:07:50;;;;;;;21.90;18.67;;;;;;;19.07;100.00;97971.81;5098435;28;20276;-64
2022/08/27 09:10:25;;;;;;;26.07;20.40;;;;;;;19.16;100.00;97981.59;5097705;28;20275;-65
2022/08/27 09:12:55;;;;;;;23.90;20.47;;;;;;;19.15;100.00;97982.56;5097600;28;20276;-65
2022/08/27 09:15:27;;;;;;;22.77;19.97;;;;;;;19.06;100.00;97978.19;5097850;28;20231;-65
2022/08/27 09:18:05;;;;;;;25.03;21.13;;;;;;;19.05;100.00;97976.53;5082555;28;20231;-65
2022/08/27 09:20:33;;;;;;;27.63;22.93;;;;;;;19.08;100.00;97978.84;5097706;28;20253;-66
2022/08/27 09:23:11;;;;;;;30.27;23.57;;;;;;;19.14;100.00;97980.88;5097718;28;20230;-66
2022/08/27 09:25:40;;;;;;;28.40;23.33;;;;;;;19.21;100.00;97973.91;5096704;28;20291;-68
2022/08/27 09:29:14;;;;;;;27.60;23.27;;;;;;;19.28;100.00;97971.41;5096177;28;20647;-65
2022/08/27 09:31:03;;;;;;;28.93;23.50;;;;;;;19.23;100.00;97969.25;5094666;28;20300;-66
2022/08/27 09:33:30;;;;;;;26.90;23.27;;;;;;;19.24;100.00;97967.38;5093468;28;20603;-66
2022/08/27 09:36:02;;;;;;;29.57;24.40;;;;;;;19.30;100.00;97959.53;5095571;28;20252;-66
2022/08/27 09:38:33;;;;;;;26.87;22.70;;;;;;;19.36;100.00;97964.25;5099502;28;20273;-66
2022/08/27 09:41:05;;;;;;;31.27;25.43;;;;;;;19.35;100.00;97967.94;5113046;28;20227;-65
2022/08/27 09:43:32;;;;;;;30.60;24.60;;;;;;;19.31;100.00;97963.88;5111539;28;20258;-66
2022/08/27 09:46:06;;;;;;;31.30;25.73;;;;;;;19.32;100.00;97962.88;5114323;28;20321;-63
2022/08/27 09:48:34;;;;;;;36.70;27.73;;;;;;;19.32;100.00;97962.88;5114093;28;20337;-64
2022/08/27 09:51:07;;;;;;;31.70;25.87;;;;;;;19.36;100.00;97963.38;5113420;28;20226;-64
2022/08/27 09:53:42;;;;;;;32.13;25.10;;;;;;;19.41;100.00;97956.56;5112601;28;20251;-65
2022/08/27 09:56:20;;;;;;;33.60;26.40;;;;;;;19.46;100.00;97953.38;5114994;28;20224;-65
2022/08/27 09:58:51;;;;;;;32.60;26.43;;;;;;;19.53;100.00;97965.09;5111980;28;20222;-65
2022/08/27 10:01:19;;;;;;;34.53;26.43;;;;;;;19.53;100.00;97959.75;5111284;28;20226;-65
2022/08/27 10:03:46;;;;;;;35.37;27.10;;;;;;;19.58;100.00;97957.41;5114782;28;20261;-65
2022/08/27 10:06:13;;;;;;;32.30;25.87;;;;;;;19.56;100.00;97965.59;5114872;28;20245;-66
2022/08/27 10:08:46;;;;;;;38.33;28.87;;;;;;;19.57;100.00;97961.09;5112303;28;20631;-66
2022/08/27 10:11:19;;;;;;;32.97;26.70;;;;;;;19.54;100.00;97962.25;5112363;28;20291;-64
2022/08/27 10:13:56;;;;;;;32.73;26.40;;;;;;;19.55;100.00;97961.25;5114938;28;20226;-65
2022/08/27 10:16:47;;;;;;;31.43;25.70;;;;;;;19.62;100.00;97959.59;5115263;28;20334;-63
2022/08/27 10:19:24;;;;;;;34.90;26.97;;;;;;;19.65;100.00;97961.94;5111976;28;20274;-66
2022/08/27 10:22:00;;;;;;;32.50;26.77;;;;;;;19.66;100.00;97955.56;5107771;28;20261;-65
2022/08/27 10:24:38;;;;;;;32.33;25.60;;;;;;;19.68;100.00;97956.22;5111888;28;20225;-65
2022/08/27 10:27:16;;;;;;;32.23;26.67;;;;;;;19.74;100.00;97957.44;5114092;28;20708;-65
2022/08/27 10:29:50;;;;;;;32.47;26.23;;;;;;;19.74;100.00;97958.25;5115033;28;20226;-65
2022/08/27 10:32:40;;;;;;;32.47;26.53;;;;;;;19.72;100.00;97962.09;5113714;28;20222;-64
2022/08/27 10:35:12;;;;;;;32.03;25.50;;;;;;;19.70;100.00;97972.16;5091547;28;20290;-62
2022/08/27 10:37:47;;;;;;;30.10;26.47;;;;;;;19.70;100.00;97967.63;5114922;28;20228;-62
2022/08/27 10:40:25;;;;;;;30.97;25.57;;;;;;;19.67;100.00;97986.75;5112764;28;20225;-61
2022/08/27 10:43:02;;;;;;;28.93;23.77;;;;;;;19.61;100.00;97983.88;5114167;28;20264;-63
2022/08/27 10:45:41;;;;;;;28.77;23.53;;;;;;;19.66;100.00;97982.38;5114693;28;20229;-62
2022/08/27 10:48:16;;;;;;;33.10;25.13;;;;;;;19.78;100.00;97975.69;5112361;28;20222;-62
2022/08/27 10:50:49;;;;;;;32.47;26.67;;;;;;;19.82;100.00;97979.69;5111302;28;20271;-62
2022/08/27 10:53:26;;;;;;;31.53;25.70;;;;;;;19.87;100.00;97985.41;5114488;28;20296;-61
2022/08/27 10:56:06;;;;;;;33.20;26.83;;;;;;;19.91;100.00;97986.75;5103071;28;20222;-61
2022/08/27 10:58:44;;;;;;;32.80;26.23;;;;;;;19.87;100.00;97990.78;5113318;28;20264;-63
2022/08/27 11:01:19;;;;;;;30.90;25.27;;;;;;;19.94;100.00;97996.31;5114375;28;20317;-62
2022/08/27 11:03:53;;;;;;;32.90;26.03;;;;;;;19.96;100.00;97999.66;5112902;28;20270;-63
2022/08/27 11:06:25;;;;;;;32.70;25.73;;;;;;;19.97;100.00;98007.56;5112449;28;20303;-65
2022/08/27 11:08:57;;;;;;;34.43;28.53;;;;;;;19.85;100.00;98000.84;5114224;28;20224;-64
2022/08/27 11:11:34;;;;;;;34.30;27.90;;;;;;;19.77;100.00;98000.84;5114335;28;20474;-62
2022/08/27 11:14:03;;;;;;;33.27;27.17;;;;;;;19.80;100.00;98005.84;5107455;28;20222;-63
2022/08/27 11:16:37;;;;;;;36.03;27.17;;;;;;;19.75;100.00;97994.78;5112430;28;20234;-63
2022/08/27 11:19:12;;;;;;;35.33;28.10;;;;;;;19.77;100.00;97990.13;5114172;28;20230;-63
2022/08/27 11:21:44;;;;;;;35.03;28.00;;;;;;;19.85;100.00;97991.94;5109495;28;20376;-64
2022/08/27 11:24:25;;;;;;;35.77;27.80;;;;;;;19.90;100.00;97998.50;5113290;28;20268;-64